Time;durP1;ratioP1;P1;durP2;ratioP2;P2;SDS_P1;SDS_P2;PMS_P1;PMS_P2;Temp;Humidity;BMP_temperature;BMP_pressure;BME280_temperature;BME280_humidity;BME280_pressure;Samples;Min_cycle;Max_cycle;Signal;HPM_P1;HPM_P2
2020/12/07 00:01:04;;;;;;;23.02;14.35;;;6.70;92.20;;;;;;4999174;28;20058;-87
2020/12/07 00:03:30;;;;;;;22.20;13.93;;;6.70;92.30;;;;;;5003663;28;20093;-86
2020/12/07 00:05:56;;;;;;;26.48;15.57;;;6.70;92.30;;;;;;4971500;28;20085;-87
2020/12/07 00:08:21;;;;;;;23.23;14.82;;;6.70;92.30;;;;;;4986625;28;20026;-87
2020/12/07 00:10:47;;;;;;;24.90;15.38;;;6.70;92.30;;;;;;4999177;28;20030;-87
2020/12/07 00:13:16;;;;;;;24.42;14.88;;;6.70;92.30;;;;;;5006286;28;20029;-89
2020/12/07 00:15:42;;;;;;;25.50;15.88;;;6.70;92.30;;;;;;5017983;28;20018;-88
2020/12/07 00:18:08;;;;;;;28.80;17.63;;;6.70;92.30;;;;;;5016582;28;20037;-89
2020/12/07 00:20:33;;;;;;;28.20;17.63;;;6.70;92.30;;;;;;4990155;28;20037;-90
2020/12/07 00:22:59;;;;;;;31.95;18.38;;;6.70;92.20;;;;;;4996800;28;20037;-89
2020/12/07 00:25:25;;;;;;;29.75;18.30;;;6.70;92.30;;;;;;5026209;28;20018;-90
2020/12/07 00:27:50;;;;;;;27.30;17.15;;;6.70;92.30;;;;;;4977943;28;20364;-90
2020/12/07 00:30:16;;;;;;;28.60;18.48;;;6.80;92.30;;;;;;5013738;28;20054;-90
2020/12/07 00:32:42;;;;;;;31.30;18.77;;;6.70;92.30;;;;;;5004570;28;20030;-90
2020/12/07 00:35:07;;;;;;;29.85;18.65;;;6.70;92.30;;;;;;4996619;28;20491;-89
2020/12/07 00:37:33;;;;;;;27.40;16.48;;;6.70;92.30;;;;;;5012240;28;20030;-90
2020/12/07 00:39:59;;;;;;;26.23;15.32;;;6.70;92.40;;;;;;5003409;28;20034;-90
2020/12/07 00:42:25;;;;;;;30.08;17.83;;;6.70;92.40;;;;;;5009498;28;20026;-90
2020/12/07 00:44:59;;;;;;;26.98;16.40;;;6.70;92.40;;;;;;5004773;28;20129;-90
2020/12/07 00:47:25;;;;;;;22.67;15.15;;;6.70;92.40;;;;;;4993118;28;20093;-90
2020/12/07 00:49:51;;;;;;;25.70;16.25;;;6.70;92.40;;;;;;4975939;28;20065;-90
2020/12/07 00:52:17;;;;;;;30.00;18.52;;;6.70;92.40;;;;;;5019157;28;20014;-90
2020/12/07 00:54:45;;;;;;;33.72;21.10;;;6.70;92.40;;;;;;5017727;28;20053;-89
2020/12/07 00:57:17;;;;;;;30.20;18.77;;;6.70;92.30;;;;;;5022861;28;20022;-91
2020/12/07 00:59:46;;;;;;;29.15;17.63;;;6.60;92.40;;;;;;5027321;28;20041;-89
2020/12/07 01:02:11;;;;;;;27.23;16.80;;;6.60;92.40;;;;;;5014510;28;20041;-89
2020/12/07 01:04:37;;;;;;;29.85;18.13;;;6.60;92.40;;;;;;5031787;28;20042;-90
2020/12/07 01:07:03;;;;;;;33.70;19.63;;;6.60;92.50;;;;;;5045037;28;20014;-89
2020/12/07 01:09:29;;;;;;;27.77;17.33;;;6.60;92.50;;;;;;5028171;28;20046;-94
2020/12/07 01:11:59;;;;;;;32.30;19.13;;;6.60;92.50;;;;;;4997091;28;20025;-94
2020/12/07 01:14:25;;;;;;;31.90;18.10;;;6.60;92.50;;;;;;4997206;28;20026;-94
2020/12/07 01:16:51;;;;;;;29.60;18.17;;;6.60;92.60;;;;;;4981374;28;20026;-94
2020/12/07 01:19:17;;;;;;;31.50;18.73;;;6.60;92.60;;;;;;4996574;28;20026;-95
2020/12/07 01:21:43;;;;;;;33.95;19.55;;;6.50;92.80;;;;;;4980579;28;20041;-93
2020/12/07 01:24:09;;;;;;;34.20;19.83;;;6.50;92.70;;;;;;4980038;28;20125;-94
2020/12/07 01:26:35;;;;;;;33.72;20.02;;;6.50;92.70;;;;;;4996583;28;20437;-94
2020/12/07 01:29:02;;;;;;;29.20;18.35;;;6.50;93.10;;;;;;4980016;28;20050;-94
2020/12/07 01:31:28;;;;;;;29.60;17.83;;;6.50;93.00;;;;;;4995952;28;20456;-94
2020/12/07 01:33:53;;;;;;;36.70;20.75;;;6.50;93.00;;;;;;4980214;28;20037;-93
2020/12/07 01:36:19;;;;;;;35.50;20.30;;;6.50;92.90;;;;;;4996240;28;20026;-95
2020/12/07 01:38:45;;;;;;;31.88;19.42;;;6.40;93.00;;;;;;4996143;28;20420;-95
2020/12/07 01:41:11;;;;;;;42.08;24.00;;;6.40;93.20;;;;;;4995836;28;20056;-93
2020/12/07 01:43:36;;;;;;;36.05;22.00;;;6.40;93.00;;;;;;4979519;28;20034;-95
2020/12/07 01:46:05;;;;;;;35.13;21.10;;;6.30;93.10;;;;;;4996838;28;20059;-94
2020/12/07 01:48:31;;;;;;;35.72;23.08;;;6.30;93.20;;;;;;4980778;28;20034;-94
2020/12/07 01:50:57;;;;;;;38.00;21.98;;;6.30;93.20;;;;;;4998375;28;20022;-94
2020/12/07 01:53:23;;;;;;;31.63;19.08;;;6.30;93.20;;;;;;4990032;28;20042;-94
2020/12/07 01:55:50;;;;;;;38.13;23.45;;;6.30;93.40;;;;;;4990204;28;20038;-95
2020/12/07 01:58:16;;;;;;;41.13;23.35;;;6.30;93.40;;;;;;4981117;28;20034;-94
2020/12/07 02:00:46;;;;;;;41.53;23.42;;;6.20;93.30;;;;;;4981700;28;20089;-88
2020/12/07 02:03:11;;;;;;;36.30;22.42;;;6.20;93.30;;;;;;5031353;23;20025;-91
2020/12/07 02:05:38;;;;;;;37.63;22.30;;;6.20;93.30;;;;;;5029249;28;20030;-91
2020/12/07 02:08:14;;;;;;;47.20;24.25;;;6.20;93.50;;;;;;5024130;28;20075;-91
2020/12/07 02:10:40;;;;;;;37.60;22.02;;;6.20;93.40;;;;;;5034279;28;20056;-90
2020/12/07 02:13:06;;;;;;;46.83;24.75;;;6.20;93.50;;;;;;5051413;28;20030;-91
2020/12/07 02:15:32;;;;;;;37.67;21.45;;;6.10;93.50;;;;;;5033688;28;20029;-91
2020/12/07 02:17:58;;;;;;;38.47;20.35;;;6.10;93.60;;;;;;5027858;28;20068;-91
2020/12/07 02:20:24;;;;;;;41.20;20.92;;;6.10;93.70;;;;;;5043840;28;20461;-89
2020/12/07 02:22:50;;;;;;;37.28;20.85;;;6.10;93.60;;;;;;5036110;28;20029;-90
2020/12/07 02:25:19;;;;;;;36.42;20.95;;;6.10;93.70;;;;;;5018206;28;20033;-90
2020/12/07 02:27:47;;;;;;;48.35;24.02;;;6.10;93.80;;;;;;5034077;28;20017;-90
2020/12/07 02:30:17;;;;;;;36.95;20.92;;;6.10;93.70;;;;;;5051062;28;20107;-91
2020/12/07 02:32:44;;;;;;;35.90;18.73;;;6.10;93.80;;;;;;5050178;28;20026;-90
2020/12/07 02:35:10;;;;;;;38.08;21.38;;;6.10;93.90;;;;;;5034275;28;20072;-91
2020/12/07 02:37:38;;;;;;;38.78;23.25;;;6.10;93.90;;;;;;5035022;28;20040;-90
2020/12/07 02:40:07;;;;;;;38.90;21.13;;;6.10;93.90;;;;;;5028161;28;20021;-90
2020/12/07 02:42:35;;;;;;;40.60;21.70;;;6.10;93.90;;;;;;5027719;28;20496;-90
2020/12/07 02:45:05;;;;;;;39.65;22.52;;;6.10;93.90;;;;;;5033744;28;20206;-91
2020/12/07 02:47:32;;;;;;;39.17;22.50;;;6.10;93.90;;;;;;5033642;28;20022;-90
2020/12/07 02:49:58;;;;;;;64.15;27.48;;;6.10;94.00;;;;;;5019934;28;20041;-90
2020/12/07 02:52:25;;;;;;;51.65;25.65;;;6.10;93.80;;;;;;5034206;28;20048;-90
2020/12/07 02:54:53;;;;;;;40.00;22.40;;;6.10;93.80;;;;;;5034078;28;20038;-90
2020/12/07 02:57:19;;;;;;;42.75;23.23;;;6.10;94.00;;;;;;5034289;28;20030;-91
2020/12/07 02:59:45;;;;;;;57.67;28.23;;;6.10;94.00;;;;;;5034021;28;20033;-92
2020/12/07 03:02:11;;;;;;;45.72;23.70;;;6.00;93.90;;;;;;5034521;28;20025;-91
2020/12/07 03:04:36;;;;;;;51.08;25.50;;;6.00;94.10;;;;;;5033298;28;20045;-92
2020/12/07 03:07:02;;;;;;;44.63;23.88;;;6.00;94.00;;;;;;5033457;28;20025;-91
2020/12/07 03:09:28;;;;;;;45.60;23.73;;;6.00;94.20;;;;;;5033629;28;20052;-91
2020/12/07 03:11:53;;;;;;;37.70;20.58;;;6.00;94.10;;;;;;5034489;28;20029;-91
2020/12/07 03:14:19;;;;;;;45.30;23.40;;;6.00;94.20;;;;;;5034546;28;20029;-90
2020/12/07 03:16:45;;;;;;;43.72;23.67;;;6.00;94.10;;;;;;5017587;28;20032;-90
2020/12/07 03:19:11;;;;;;;43.13;21.48;;;6.00;94.20;;;;;;5019827;28;20037;-90
2020/12/07 03:21:37;;;;;;;58.63;27.10;;;6.10;94.30;;;;;;5017190;28;20377;-90
2020/12/07 03:24:05;;;;;;;38.03;21.42;;;6.10;94.20;;;;;;5016586;28;20045;-91
2020/12/07 03:26:37;;;;;;;36.60;20.52;;;6.00;94.30;;;;;;5033239;28;20072;-90
2020/12/07 03:29:04;;;;;;;43.70;22.85;;;6.10;94.40;;;;;;5034222;28;20112;-91
2020/12/07 03:31:34;;;;;;;40.20;21.08;;;6.00;94.30;;;;;;5023142;28;20034;-90
2020/12/07 03:34:00;;;;;;;35.95;20.42;;;6.10;94.30;;;;;;5040946;28;20087;-91
2020/12/07 03:36:29;;;;;;;44.92;23.17;;;6.10;94.40;;;;;;5039801;28;20030;-90
2020/12/07 03:38:55;;;;;;;41.83;22.73;;;6.10;94.40;;;;;;5039821;28;20067;-91
2020/12/07 03:41:21;;;;;;;35.10;20.85;;;6.10;94.20;;;;;;5023422;28;20026;-90
2020/12/07 03:43:49;;;;;;;60.50;26.30;;;6.00;94.50;;;;;;5023357;28;20087;-90
2020/12/07 03:46:15;;;;;;;64.53;28.70;;;6.10;94.40;;;;;;5039621;28;20354;-91
2020/12/07 03:48:41;;;;;;;41.00;20.88;;;6.10;94.30;;;;;;5023354;28;20072;-90
2020/12/07 03:51:07;;;;;;;39.88;21.92;;;6.00;94.40;;;;;;5022468;28;20118;-91
2020/12/07 03:53:34;;;;;;;39.83;22.17;;;6.00;94.40;;;;;;5024142;28;20040;-90
2020/12/07 03:56:01;;;;;;;37.00;19.52;;;6.00;94.40;;;;;;5023323;28;20038;-90
2020/12/07 03:58:27;;;;;;;49.65;24.73;;;6.10;94.50;;;;;;5052388;28;20103;-90
2020/12/07 04:00:53;;;;;;;37.50;19.33;;;6.10;94.40;;;;;;5053967;28;20030;-91
2020/12/07 04:03:20;;;;;;;39.75;21.08;;;6.10;94.60;;;;;;5028595;28;20056;-91
2020/12/07 04:05:48;;;;;;;35.60;19.85;;;6.10;94.50;;;;;;5039692;28;20454;-90
2020/12/07 04:08:14;;;;;;;32.97;18.45;;;6.10;94.60;;;;;;5039507;28;20090;-90
2020/12/07 04:10:39;;;;;;;33.40;18.48;;;6.20;94.70;;;;;;5040504;28;20037;-90
2020/12/07 04:13:06;;;;;;;34.72;20.35;;;6.10;94.70;;;;;;5038853;28;20033;-89
2020/12/07 04:15:32;;;;;;;41.50;20.63;;;6.10;94.60;;;;;;5051830;28;20049;-90
2020/12/07 04:17:59;;;;;;;34.25;19.15;;;6.10;94.60;;;;;;5029269;28;20049;-90
2020/12/07 04:20:25;;;;;;;40.17;19.52;;;6.10;94.60;;;;;;5039829;28;20025;-91
2020/12/07 04:22:53;;;;;;;44.03;22.70;;;6.10;94.60;;;;;;5039791;28;20037;-90
2020/12/07 04:25:19;;;;;;;35.10;18.63;;;6.10;94.50;;;;;;5039278;28;20093;-90
2020/12/07 04:27:45;;;;;;;42.08;20.77;;;6.10;94.60;;;;;;5038922;28;20112;-91
2020/12/07 04:30:10;;;;;;;33.63;18.60;;;6.10;94.60;;;;;;5019708;28;20046;-91
2020/12/07 04:32:36;;;;;;;32.45;18.38;;;6.10;94.70;;;;;;5022581;28;20096;-91
2020/12/07 04:35:03;;;;;;;28.58;16.23;;;6.10;94.60;;;;;;5019450;28;20034;-91
2020/12/07 04:37:28;;;;;;;30.63;17.80;;;6.10;94.80;;;;;;5038891;28;20029;-91
2020/12/07 04:39:54;;;;;;;32.17;17.63;;;6.10;94.70;;;;;;5039692;28;20083;-91
2020/12/07 04:42:20;;;;;;;38.60;19.13;;;6.20;94.80;;;;;;5038229;28;20025;-90
2020/12/07 04:44:46;;;;;;;32.65;16.30;;;6.20;94.80;;;;;;5036345;28;20036;-92
2020/12/07 04:47:18;;;;;;;27.35;16.77;;;6.20;94.80;;;;;;5036506;28;20021;-92
2020/12/07 04:49:45;;;;;;;31.60;17.75;;;6.20;94.90;;;;;;5035427;28;20034;-89
2020/12/07 04:52:12;;;;;;;35.97;19.10;;;6.20;94.80;;;;;;5036392;28;20124;-90
2020/12/07 04:54:40;;;;;;;44.63;22.77;;;6.20;94.80;;;;;;5037185;28;20103;-91
2020/12/07 04:57:07;;;;;;;43.53;20.92;;;6.10;94.60;;;;;;5019641;28;20116;-91
2020/12/07 04:59:33;;;;;;;36.38;19.88;;;6.10;94.70;;;;;;5035953;28;20037;-90
2020/12/07 05:02:00;;;;;;;33.72;19.33;;;6.10;94.70;;;;;;5035083;28;20056;-90
2020/12/07 05:04:26;;;;;;;33.67;18.55;;;6.20;94.80;;;;;;5052200;28;20117;-90
2020/12/07 05:07:02;;;;;;;49.33;23.83;;;6.20;94.80;;;;;;5019253;28;20037;-90
2020/12/07 05:09:29;;;;;;;39.13;21.50;;;6.10;94.70;;;;;;5035683;28;20074;-90
2020/12/07 05:11:57;;;;;;;38.85;19.88;;;6.20;94.80;;;;;;5036698;28;20051;-91
2020/12/07 05:14:23;;;;;;;44.08;23.60;;;6.20;94.90;;;;;;5019393;28;20442;-90
2020/12/07 05:16:49;;;;;;;39.03;21.08;;;6.20;94.80;;;;;;5018892;28;20454;-91
2020/12/07 05:19:18;;;;;;;45.88;21.88;;;6.20;94.90;;;;;;5036129;28;20040;-90
2020/12/07 05:21:43;;;;;;;46.42;24.38;;;6.10;94.80;;;;;;5035313;28;20470;-90
2020/12/07 05:24:10;;;;;;;49.20;25.90;;;6.10;94.80;;;;;;5018560;28;20033;-91
2020/12/07 05:26:36;;;;;;;48.30;23.63;;;6.10;94.80;;;;;;5018844;28;20037;-90
2020/12/07 05:29:07;;;;;;;61.70;30.17;;;6.10;94.90;;;;;;5018532;28;20029;-91
2020/12/07 05:31:34;;;;;;;48.55;25.45;;;6.10;94.80;;;;;;5034867;28;20151;-92
2020/12/07 05:34:00;;;;;;;47.03;25.85;;;6.10;94.90;;;;;;5034741;28;20032;-90
2020/12/07 05:36:26;;;;;;;43.15;24.20;;;6.10;94.90;;;;;;5051404;28;20024;-90
2020/12/07 05:38:52;;;;;;;75.70;33.22;;;6.10;95.00;;;;;;5034972;28;20440;-89
2020/12/07 05:41:24;;;;;;;44.90;26.00;;;6.10;94.90;;;;;;5036098;28;20035;-92
2020/12/07 05:43:54;;;;;;;85.93;34.53;;;6.10;95.00;;;;;;5018517;28;20040;-91
2020/12/07 05:46:28;;;;;;;42.55;23.17;;;6.10;94.90;;;;;;5034656;28;20423;-90
2020/12/07 05:48:56;;;;;;;71.18;31.45;;;6.00;95.10;;;;;;5034382;28;20032;-91
2020/12/07 05:51:23;;;;;;;79.85;31.52;;;6.10;95.00;;;;;;5036143;28;20079;-89
2020/12/07 05:53:53;;;;;;;46.63;25.67;;;6.10;95.10;;;;;;5034764;28;20527;-91
2020/12/07 05:56:21;;;;;;;42.80;22.35;;;6.10;95.10;;;;;;5034075;28;20049;-91
2020/12/07 05:59:27;;;;;;;64.13;28.33;;;6.10;95.20;;;;;;5018056;28;20551;-92
2020/12/07 06:01:53;;;;;;;46.28;25.70;;;6.20;95.20;;;;;;5001844;28;20033;-92
2020/12/07 06:04:19;;;;;;;43.58;22.48;;;6.20;95.10;;;;;;5040741;28;20050;-91
2020/12/07 06:06:50;;;;;;;52.22;24.17;;;6.20;95.20;;;;;;5034318;28;20351;-91
2020/12/07 06:09:24;;;;;;;68.18;28.35;;;6.20;95.20;;;;;;5031488;28;20500;-91
2020/12/07 06:11:59;;;;;;;43.83;24.45;;;6.20;95.10;;;;;;5034512;28;20033;-91
2020/12/07 06:14:25;;;;;;;40.22;22.65;;;6.20;95.10;;;;;;5034966;28;20385;-89
2020/12/07 06:16:54;;;;;;;50.30;24.90;;;6.20;95.10;;;;;;5045773;28;20088;-91
2020/12/07 06:19:20;;;;;;;48.95;24.38;;;6.20;95.10;;;;;;5033382;28;20359;-91
2020/12/07 06:22:02;;;;;;;52.88;24.23;;;6.20;95.10;;;;;;5040149;28;20038;-92
2020/12/07 06:24:40;;;;;;;72.00;30.08;;;6.20;95.20;;;;;;5029754;28;20028;-92
2020/12/07 06:27:11;;;;;;;68.57;28.95;;;6.20;95.10;;;;;;5036373;28;20155;-92
2020/12/07 06:29:37;;;;;;;;;;;6.20;95.10;;;;;;5026004;28;20462;-93
2020/12/07 06:32:03;;;;;;;75.00;29.63;;;6.10;95.20;;;;;;5044442;28;19969;-94
2020/12/07 06:34:39;;;;;;;53.92;26.90;;;6.20;95.20;;;;;;5020647;28;20640;-92
2020/12/07 06:37:10;;;;;;;79.25;33.15;;;6.10;95.20;;;;;;5034088;28;20022;-93
2020/12/07 06:40:03;;;;;;;65.93;31.30;;;6.10;95.20;;;;;;5014851;28;20037;-90
2020/12/07 06:42:38;;;;;;;74.30;29.45;;;6.10;95.30;;;;;;5029863;28;20081;-92
2020/12/07 06:45:08;;;;;;;78.35;33.53;;;6.10;95.30;;;;;;5018343;28;20045;-94
2020/12/07 06:47:34;;;;;;;48.73;26.13;;;6.10;95.30;;;;;;5036499;28;20026;-92
2020/12/07 06:50:12;;;;;;;86.85;33.60;;;6.00;95.40;;;;;;5016986;28;20644;-92
2020/12/07 06:52:41;;;;;;;53.85;28.52;;;6.10;95.30;;;;;;5036166;28;20029;-91
2020/12/07 06:55:12;;;;;;;58.90;28.85;;;6.10;95.40;;;;;;5034649;28;20053;-93
2020/12/07 06:57:48;;;;;;;;;;;6.10;95.40;;;;;;5033792;28;20028;-93
2020/12/07 07:00:21;;;;;;;73.35;29.70;;;6.10;95.40;;;;;;5033257;28;19909;-92
2020/12/07 07:02:55;;;;;;;57.70;28.02;;;6.10;95.40;;;;;;5033616;28;20036;-92
2020/12/07 07:05:28;;;;;;;57.67;29.08;;;6.10;95.40;;;;;;5032456;28;20501;-93
2020/12/07 07:07:54;;;;;;;56.53;27.70;;;6.10;95.40;;;;;;5032936;28;20040;-93
2020/12/07 07:10:21;;;;;;;58.50;28.45;;;6.10;95.40;;;;;;5029498;28;20041;-92
2020/12/07 07:12:48;;;;;;;54.10;28.85;;;6.10;95.40;;;;;;5021583;28;20018;-91
2020/12/07 07:15:14;;;;;;;69.35;28.70;;;6.10;95.40;;;;;;5031864;28;20033;-93
2020/12/07 07:17:41;;;;;;;66.63;29.15;;;6.10;95.40;;;;;;5030858;28;20028;-88
2020/12/07 07:20:09;;;;;;;43.67;23.17;;;6.10;95.40;;;;;;5031282;28;20029;-91
2020/12/07 07:22:48;;;;;;;41.10;22.30;;;6.20;95.50;;;;;;5029080;28;20021;-93
2020/12/07 07:30:29;;;;;;;85.47;31.58;;;6.20;95.40;;;;;;5032586;28;20091;-96
2020/12/07 07:51:16;;;;;;;44.97;24.45;;;6.00;95.40;;;;;;4991199;28;20058;-95
2020/12/07 08:17:46;;;;;;;53.13;28.23;;;5.90;95.60;;;;;;4970160;28;20041;-91
2020/12/07 08:20:12;;;;;;;66.65;29.65;;;5.90;95.70;;;;;;4979589;28;20026;-92
2020/12/07 08:22:55;;;;;;;43.28;23.08;;;5.90;95.70;;;;;;4981099;28;20076;-95
2020/12/07 08:25:49;;;;;;;;;;;;;;;;;;;;;
2020/12/07 08:28:59;;;;;;;61.25;26.60;;;6.00;95.60;;;;;;4989764;28;20030;-93
2020/12/07 08:31:27;;;;;;;61.47;28.50;;;6.00;95.70;;;;;;4968647;28;20461;-94
2020/12/07 08:33:56;;;;;;;45.45;23.80;;;5.90;95.70;;;;;;4979583;28;20387;-94
2020/12/07 08:36:32;;;;;;;57.55;26.63;;;5.90;95.70;;;;;;4979135;28;20030;-94
2020/12/07 08:38:59;;;;;;;65.57;29.42;;;5.90;95.70;;;;;;4974427;28;20026;-93
2020/12/07 08:41:30;;;;;;;45.90;23.77;;;6.00;95.70;;;;;;4978479;28;20493;-93
2020/12/07 08:44:05;;;;;;;48.28;25.90;;;6.00;95.80;;;;;;4978146;28;20050;-94
2020/12/07 08:46:51;;;;;;;56.13;26.83;;;6.00;95.70;;;;;;4977963;28;20026;-96
2020/12/07 08:49:27;;;;;;;49.13;25.48;;;6.00;95.70;;;;;;4978215;28;20074;-93
2020/12/07 08:51:55;;;;;;;82.57;34.05;;;5.90;95.80;;;;;;4980669;28;20030;-95
2020/12/07 08:54:24;;;;;;;62.20;28.42;;;5.90;95.70;;;;;;4980198;28;20030;-93
2020/12/07 08:56:52;;;;;;;67.80;30.08;;;6.00;95.80;;;;;;4983439;28;20011;-94
2020/12/07 08:59:23;;;;;;;48.20;25.23;;;6.00;95.80;;;;;;4979786;28;20026;-90
2020/12/07 09:01:49;;;;;;;66.70;30.00;;;6.00;95.80;;;;;;4980852;28;20457;-95
2020/12/07 09:04:26;;;;;;;57.45;28.42;;;6.00;95.70;;;;;;4981104;28;20065;-93
2020/12/07 09:07:04;;;;;;;76.93;32.95;;;6.00;95.80;;;;;;4979952;28;20064;-95
2020/12/07 09:09:29;;;;;;;62.58;29.48;;;6.00;95.70;;;;;;4981433;28;20038;-92
2020/12/07 09:11:55;;;;;;;64.07;32.08;;;6.00;95.80;;;;;;4994905;28;20057;-95
2020/12/07 09:14:24;;;;;;;69.50;32.70;;;5.90;95.70;;;;;;5003299;28;20018;-89
2020/12/07 09:16:55;;;;;;;78.50;34.83;;;5.90;95.80;;;;;;4983597;28;20019;-95
2020/12/07 09:19:20;;;;;;;90.55;38.42;;;5.90;95.70;;;;;;4967712;28;20125;-92
2020/12/07 09:21:49;;;;;;;59.47;30.25;;;5.80;95.70;;;;;;4988450;28;20077;-91
2020/12/07 09:24:18;;;;;;;53.92;28.13;;;5.80;95.80;;;;;;5011892;23;20057;-92
2020/12/07 09:26:44;;;;;;;60.38;30.98;;;5.90;95.80;;;;;;4984913;28;20022;-93
2020/12/07 09:29:09;;;;;;;77.75;35.72;;;5.90;95.80;;;;;;4983779;28;20029;-94
2020/12/07 09:31:36;;;;;;;65.50;34.10;;;5.80;95.70;;;;;;4985130;28;20030;-95
2020/12/07 09:34:01;;;;;;;55.58;29.15;;;5.80;95.80;;;;;;4984455;28;20030;-95
2020/12/07 09:36:27;;;;;;;76.63;35.50;;;5.80;95.80;;;;;;4984586;28;20029;-95
2020/12/07 09:38:52;;;;;;;56.70;31.55;;;5.80;95.70;;;;;;4985944;28;20125;-94
2020/12/07 09:41:18;;;;;;;85.38;37.35;;;5.80;95.80;;;;;;5006875;28;20407;-94
2020/12/07 09:43:44;;;;;;;67.22;33.38;;;5.80;95.90;;;;;;4991352;28;20506;-95
2020/12/07 09:46:09;;;;;;;74.22;34.95;;;5.80;95.80;;;;;;4999621;28;20045;-95
2020/12/07 09:48:35;;;;;;;58.42;30.08;;;5.80;95.80;;;;;;5001050;28;20018;-93
2020/12/07 09:51:01;;;;;;;53.58;29.20;;;5.80;95.80;;;;;;4982232;28;20030;-94
2020/12/07 09:53:26;;;;;;;65.53;33.40;;;5.80;95.80;;;;;;4980351;28;20049;-95
2020/12/07 09:55:52;;;;;;;66.35;34.20;;;5.80;95.80;;;;;;4970931;28;20046;-93
2020/12/07 09:58:41;;;;;;;65.22;33.28;;;5.80;95.80;;;;;;4966766;28;20030;-94
2020/12/07 10:01:14;;;;;;;54.92;31.08;;;5.80;95.80;;;;;;4997743;28;20080;-93
2020/12/07 10:03:40;;;;;;;86.25;39.30;;;5.80;95.80;;;;;;4992639;28;20037;-92
2020/12/07 10:06:06;;;;;;;83.72;37.60;;;5.80;95.80;;;;;;5018962;28;20030;-94
2020/12/07 10:08:31;;;;;;;81.35;38.72;;;5.80;95.80;;;;;;4992808;28;20030;-94
2020/12/07 10:10:57;;;;;;;94.45;41.35;;;5.80;95.80;;;;;;5001704;28;20026;-94
2020/12/07 10:13:22;;;;;;;103.07;42.33;;;5.80;95.80;;;;;;4990593;28;20034;-92
2020/12/07 10:15:48;;;;;;;62.13;31.42;;;5.70;95.80;;;;;;4980595;28;20034;-91
2020/12/07 10:18:14;;;;;;;96.13;41.28;;;5.80;95.90;;;;;;4985423;28;20030;-92
2020/12/07 10:20:39;;;;;;;77.20;36.15;;;5.80;95.80;;;;;;4969554;28;20043;-93
2020/12/07 10:23:05;;;;;;;89.60;41.20;;;5.80;95.90;;;;;;4983630;28;20034;-93
2020/12/07 10:25:31;;;;;;;69.32;34.30;;;5.70;95.80;;;;;;4982496;28;20064;-93
2020/12/07 10:27:56;;;;;;;98.30;42.35;;;5.80;95.90;;;;;;5015057;28;20061;-92
2020/12/07 10:30:22;;;;;;;65.47;33.38;;;5.70;95.90;;;;;;4982670;28;20076;-92
2020/12/07 10:32:48;;;;;;;62.72;33.35;;;5.70;96.00;;;;;;4998970;28;20029;-92
2020/12/07 10:35:13;;;;;;;65.53;33.92;;;5.80;96.00;;;;;;4982344;28;20072;-91
2020/12/07 10:37:40;;;;;;;108.95;46.22;;;5.80;96.00;;;;;;5023499;28;20022;-90
2020/12/07 10:40:06;;;;;;;67.70;34.80;;;5.80;95.90;;;;;;4989922;28;20494;-90
2020/12/07 10:42:31;;;;;;;95.65;40.95;;;5.80;96.00;;;;;;4980905;28;20049;-89
2020/12/07 10:44:57;;;;;;;120.00;47.92;;;5.80;95.90;;;;;;4998331;28;20031;-91
2020/12/07 10:47:23;;;;;;;119.20;47.92;;;5.80;95.80;;;;;;4981571;28;20018;-90
2020/12/07 10:49:48;;;;;;;108.80;45.40;;;5.70;95.90;;;;;;5010276;28;20038;-89
2020/12/07 10:52:14;;;;;;;103.03;44.63;;;5.70;96.00;;;;;;4987766;28;20110;-90
2020/12/07 10:54:40;;;;;;;116.13;49.50;;;5.70;95.90;;;;;;5005309;28;20025;-90
2020/12/07 10:57:05;;;;;;;104.43;45.78;;;5.70;95.80;;;;;;4984041;28;20030;-90
2020/12/07 10:59:31;;;;;;;115.43;47.47;;;5.60;95.70;;;;;;4964566;28;20052;-90
2020/12/07 11:01:57;;;;;;;129.93;50.35;;;5.60;95.80;;;;;;4962808;28;20030;-88
2020/12/07 11:04:23;;;;;;;107.53;43.75;;;5.60;95.80;;;;;;5007847;28;20383;-90
2020/12/07 11:06:50;;;;;;;129.80;48.72;;;5.60;95.80;;;;;;4982582;28;20491;-91
2020/12/07 11:09:23;;;;;;;117.38;46.00;;;5.60;95.80;;;;;;4979404;28;20034;-91
2020/12/07 11:11:50;;;;;;;131.88;49.55;;;5.60;95.80;;;;;;4996945;28;20112;-91
2020/12/07 11:14:15;;;;;;;121.10;48.03;;;5.60;95.80;;;;;;4987859;28;20120;-91
2020/12/07 11:16:41;;;;;;;127.32;47.42;;;5.60;95.80;;;;;;4982247;28;20168;-89
2020/12/07 11:19:07;;;;;;;106.53;43.55;;;5.50;95.80;;;;;;5005898;28;20181;-89
2020/12/07 11:21:32;;;;;;;145.13;52.88;;;5.60;95.80;;;;;;4980264;28;20033;-90
2020/12/07 11:24:10;;;;;;;124.13;48.22;;;5.60;95.70;;;;;;5000881;28;20045;-90
2020/12/07 11:26:36;;;;;;;116.63;43.78;;;5.50;95.60;;;;;;4999085;28;20037;-92
2020/12/07 11:29:01;;;;;;;122.18;45.90;;;5.50;95.60;;;;;;5011903;28;20040;-92
2020/12/07 11:31:27;;;;;;;79.00;37.05;;;5.50;95.70;;;;;;4986768;28;20097;-94
2020/12/07 11:33:53;;;;;;;123.78;45.20;;;5.50;95.70;;;;;;4974213;28;20026;-95
2020/12/07 11:36:18;;;;;;;92.63;37.75;;;5.50;95.60;;;;;;4967208;28;20546;-93
2020/12/07 11:44:16;;;;;;;118.28;43.78;;;5.60;95.60;;;;;;5005054;28;20133;-90
2020/12/07 11:46:49;;;;;;;91.78;37.97;;;5.60;95.60;;;;;;5017826;28;20465;-90
2020/12/07 11:49:15;;;;;;;109.47;43.47;;;5.70;95.60;;;;;;5019350;28;20042;-90
2020/12/07 11:51:40;;;;;;;85.13;36.13;;;5.60;95.60;;;;;;5033808;28;20041;-87
2020/12/07 11:54:06;;;;;;;103.40;40.47;;;5.60;95.70;;;;;;5033473;28;20033;-87
2020/12/07 11:56:34;;;;;;;97.47;39.00;;;5.60;95.60;;;;;;5034923;28;20029;-88
2020/12/07 11:59:01;;;;;;;101.47;39.95;;;5.50;95.60;;;;;;5025268;28;20024;-88
2020/12/07 12:01:29;;;;;;;95.97;40.92;;;5.50;95.60;;;;;;5017525;28;20026;-89
2020/12/07 12:03:55;;;;;;;100.72;39.00;;;5.50;95.60;;;;;;5004944;28;20108;-87
2020/12/07 12:06:25;;;;;;;60.38;29.45;;;5.40;95.60;;;;;;4993608;28;20061;-89
2020/12/07 12:08:53;;;;;;;78.43;34.30;;;5.50;95.70;;;;;;4997154;28;20034;-89
2020/12/07 12:11:20;;;;;;;101.13;40.47;;;5.50;95.70;;;;;;5017891;28;20108;-90
2020/12/07 12:13:46;;;;;;;98.57;38.83;;;5.50;95.70;;;;;;5027737;28;20034;-89
2020/12/07 12:16:13;;;;;;;84.78;36.97;;;5.50;95.80;;;;;;5004160;28;20527;-89
2020/12/07 12:18:39;;;;;;;97.28;37.25;;;5.40;95.70;;;;;;5021325;28;20033;-89
2020/12/07 12:21:05;;;;;;;96.97;37.03;;;5.30;95.80;;;;;;5007288;28;20029;-89
2020/12/07 12:23:30;;;;;;;88.57;35.42;;;5.30;95.80;;;;;;5015163;28;20034;-90
2020/12/07 12:25:56;;;;;;;97.45;36.25;;;5.30;95.80;;;;;;5000796;28;20026;-89
2020/12/07 12:28:22;;;;;;;85.93;35.80;;;5.30;95.90;;;;;;5015549;28;20472;-88
2020/12/07 12:30:48;;;;;;;85.85;34.92;;;5.30;95.90;;;;;;5015082;28;20041;-88
2020/12/07 12:33:13;;;;;;;85.32;34.45;;;5.30;95.90;;;;;;4999114;28;20041;-88
2020/12/07 12:35:39;;;;;;;85.93;33.65;;;5.40;95.90;;;;;;4991287;28;20427;-88
2020/12/07 12:38:04;;;;;;;96.10;38.60;;;5.40;95.90;;;;;;4983677;28;20053;-88
2020/12/07 12:40:30;;;;;;;80.05;34.15;;;5.40;95.80;;;;;;5015850;28;20041;-87
2020/12/07 12:42:56;;;;;;;82.97;33.15;;;5.40;95.70;;;;;;4985884;28;20121;-88
2020/12/07 12:45:21;;;;;;;78.47;31.98;;;5.40;95.80;;;;;;4999145;28;20537;-88
2020/12/07 12:47:47;;;;;;;98.68;36.70;;;5.40;95.80;;;;;;5004621;28;20036;-88
2020/12/07 12:50:13;;;;;;;70.40;30.92;;;5.40;95.70;;;;;;4979322;28;20053;-88
2020/12/07 12:52:39;;;;;;;68.35;30.25;;;5.40;95.80;;;;;;4992213;28;20022;-89
2020/12/07 12:55:05;;;;;;;96.82;35.38;;;5.40;95.80;;;;;;4994757;28;20044;-88
2020/12/07 12:57:30;;;;;;;76.75;31.27;;;5.40;95.60;;;;;;5017532;28;20026;-88
2020/12/07 12:59:56;;;;;;;75.28;30.35;;;5.40;95.70;;;;;;5003287;28;20135;-89
2020/12/07 13:02:22;;;;;;;65.30;29.23;;;5.40;95.70;;;;;;4986618;28;20041;-89
2020/12/07 13:04:48;;;;;;;58.60;26.75;;;5.50;95.70;;;;;;4998473;28;20026;-88
2020/12/07 13:07:13;;;;;;;76.28;31.05;;;5.50;95.70;;;;;;4979376;28;20033;-88
2020/12/07 13:09:39;;;;;;;93.03;34.83;;;5.50;95.60;;;;;;4982642;28;20033;-88
2020/12/07 13:12:04;;;;;;;90.28;36.00;;;5.60;95.60;;;;;;4982054;28;20061;-89
2020/12/07 13:14:30;;;;;;;68.68;30.38;;;5.40;95.40;;;;;;4989124;28;20036;-88
2020/12/07 13:19:22;;;;;;;60.40;27.48;;;5.40;95.50;;;;;;5003151;28;20121;-89
2020/12/07 13:21:58;;;;;;;55.88;26.40;;;5.50;95.60;;;;;;4992045;28;20030;-89
2020/12/07 13:24:33;;;;;;;71.00;30.35;;;5.50;95.60;;;;;;4991753;28;20050;-89
2020/12/07 13:29:45;;;;;;;58.30;27.27;;;5.50;95.40;;;;;;4996261;28;20034;-90
2020/12/07 13:32:10;;;;;;;78.82;32.08;;;5.50;95.40;;;;;;5011022;28;20710;-89
2020/12/07 13:34:36;;;;;;;47.45;24.40;;;5.40;95.30;;;;;;4985146;28;20088;-88
2020/12/07 13:37:02;;;;;;;68.40;30.67;;;5.40;95.40;;;;;;4995846;28;20077;-89
2020/12/07 13:39:28;;;;;;;90.75;33.97;;;5.40;95.40;;;;;;4996375;28;20377;-89